Time;durP1;ratioP1;P1;durP2;ratioP2;P2;SDS_P1;SDS_P2;PMS_P1;PMS_P2;Temp;Humidity;BMP_temperature;BMP_pressure;BME280_temperature;BME280_humidity;BME280_pressure;Samples;Min_cycle;Max_cycle;Signal;HPM_P1;HPM_P2
2022/08/01 00:01:35;;;;;;;17.17;7.85;;;;;;;18.56;100.00;101632.56;5023022;28;20313;-76
2022/08/01 00:04:01;;;;;;;19.00;8.10;;;;;;;18.56;100.00;101629.84;5031303;28;20024;-76
2022/08/01 00:06:27;;;;;;;14.00;7.55;;;;;;;18.59;100.00;101632.13;5030852;28;20033;-76
2022/08/01 00:08:52;;;;;;;19.73;8.65;;;;;;;18.62;100.00;101642.59;5028449;28;20551;-76
2022/08/01 00:11:18;;;;;;;17.00;7.68;;;;;;;18.61;100.00;101632.72;5030949;28;20030;-75
2022/08/01 00:13:43;;;;;;;17.17;7.45;;;;;;;18.59;100.00;101632.13;5031602;28;20113;-76
2022/08/01 00:16:09;;;;;;;15.30;6.57;;;;;;;18.58;100.00;101635.88;5031026;28;20039;-75
2022/08/01 00:18:35;;;;;;;11.32;5.68;;;;;;;18.59;100.00;101632.13;5031844;28;20367;-76
2022/08/01 00:21:01;;;;;;;9.73;4.35;;;;;;;18.58;100.00;101638.59;5030278;28;20077;-76
2022/08/01 00:23:27;;;;;;;8.32;3.70;;;;;;;18.56;100.00;101638.00;5030513;28;20028;-76
2022/08/01 00:25:52;;;;;;;4.70;2.80;;;;;;;18.55;100.00;101636.31;5031513;28;20104;-77
2022/08/01 00:28:17;;;;;;;3.33;2.00;;;;;;;18.55;100.00;101641.78;5032259;28;20563;-77
2022/08/01 00:30:43;;;;;;;3.85;1.83;;;;;;;18.54;100.00;101637.38;5020666;28;20382;-76
2022/08/01 00:33:08;;;;;;;3.47;1.70;;;;;;;18.51;100.00;101636.97;5034885;28;20029;-75
2022/08/01 00:35:34;;;;;;;2.60;1.83;;;;;;;18.48;100.00;101630.03;5033533;28;20049;-76
2022/08/01 00:37:59;;;;;;;5.22;2.10;;;;;;;18.46;100.00;101643.06;5031729;28;20475;-76
2022/08/01 00:40:24;;;;;;;3.05;1.52;;;;;;;18.43;100.00;101640.75;5041119;28;20396;-76
2022/08/01 00:42:50;;;;;;;2.42;1.70;;;;;;;18.38;100.00;101637.88;5041820;28;20544;-76
2022/08/01 00:45:15;;;;;;;2.95;2.22;;;;;;;18.34;100.00;101644.78;5036028;28;20257;-76
2022/08/01 00:47:40;;;;;;;7.22;2.63;;;;;;;18.31;100.00;101651.50;5032461;28;20053;-74
2022/08/01 00:50:06;;;;;;;6.20;2.85;;;;;;;18.30;100.00;101643.53;5036963;28;20021;-75
2022/08/01 00:52:33;;;;;;;6.30;2.80;;;;;;;18.29;100.00;101641.84;5035655;28;20033;-76
2022/08/01 00:54:59;;;;;;;3.63;2.45;;;;;;;18.24;100.00;101647.09;5039355;28;20048;-77
2022/08/01 00:57:24;;;;;;;3.83;2.40;;;;;;;18.23;100.00;101645.44;5039669;28;20033;-76
2022/08/01 00:59:50;;;;;;;5.97;3.00;;;;;;;18.19;100.00;101637.72;5032676;28;20025;-76
2022/08/01 01:02:17;;;;;;;4.05;2.80;;;;;;;18.16;100.00;101643.56;5015331;28;20033;-75
2022/08/01 01:04:43;;;;;;;3.87;2.70;;;;;;;18.16;100.00;101637.28;5033921;28;20067;-75
2022/08/01 01:07:17;;;;;;;3.28;2.83;;;;;;;18.17;100.00;101633.53;5030696;28;20064;-75
2022/08/01 01:09:48;;;;;;;6.15;3.00;;;;;;;18.15;100.00;101639.16;5031403;28;20033;-75
2022/08/01 01:12:32;;;;;;;4.05;3.13;;;;;;;18.15;100.00;101636.44;5030845;28;20034;-75
2022/08/01 01:15:08;;;;;;;5.80;3.22;;;;;;;18.14;100.00;101632.06;5031460;28;20056;-75
2022/08/01 01:17:57;;;;;;;8.30;3.67;;;;;;;18.13;100.00;101630.34;5029985;28;20123;-75
2022/08/01 01:20:28;;;;;;;6.65;3.10;;;;;;;18.13;100.00;101627.63;5013159;28;20087;-75
2022/08/01 01:22:53;;;;;;;7.63;3.28;;;;;;;18.11;100.00;101629.72;5030001;28;20397;-74
2022/08/01 01:25:51;;;;;;;5.60;4.00;;;;;;;18.11;100.00;101628.91;5031444;28;20120;-74
2022/08/01 01:28:41;;;;;;;7.15;4.00;;;;;;;18.06;100.00;101632.28;5031073;28;20061;-75
2022/08/01 01:31:08;;;;;;;9.13;4.80;;;;;;;18.04;100.00;101639.81;5013333;28;20487;-75
2022/08/01 01:33:36;;;;;;;9.57;4.47;;;;;;;18.05;100.00;101629.75;5028668;28;20025;-76
2022/08/01 01:36:05;;;;;;;8.02;5.03;;;;;;;18.02;100.00;101630.19;5013956;28;20045;-75
2022/08/01 01:38:41;;;;;;;7.85;4.50;;;;;;;18.05;100.00;101636.03;5032390;28;20026;-75
2022/08/01 01:41:08;;;;;;;9.48;4.97;;;;;;;18.02;100.00;101624.75;5016846;28;20022;-76
2022/08/01 01:43:35;;;;;;;8.00;5.25;;;;;;;18.03;100.00;101632.69;5034759;28;20369;-75
2022/08/01 01:46:02;;;;;;;13.65;5.10;;;;;;;18.05;100.00;101640.66;5033256;28;20111;-76
2022/08/01 01:48:28;;;;;;;10.25;4.88;;;;;;;18.06;100.00;101635.00;5033640;28;20027;-75
2022/08/01 01:50:56;;;;;;;9.70;4.95;;;;;;;18.05;100.00;101638.75;5034802;28;20175;-75
2022/08/01 01:53:22;;;;;;;10.40;4.88;;;;;;;18.06;100.00;101642.31;5033979;28;20055;-76
2022/08/01 01:55:51;;;;;;;8.63;5.13;;;;;;;18.05;100.00;101638.75;5018048;28;20025;-76
2022/08/01 01:58:17;;;;;;;10.15;4.47;;;;;;;18.04;100.00;101637.09;5034603;28;20108;-75
2022/08/01 02:00:44;;;;;;;14.23;4.85;;;;;;;18.09;100.00;101642.75;5032373;28;20112;-76
2022/08/01 02:03:11;;;;;;;11.55;4.38;;;;;;;18.06;100.00;101645.91;5033186;28;20048;-75
2022/08/01 02:05:37;;;;;;;6.30;3.50;;;;;;;18.05;100.00;101636.03;5033830;28;20059;-75
2022/08/01 02:08:04;;;;;;;8.23;3.53;;;;;;;18.09;100.00;101640.03;5032291;28;20091;-75
2022/08/01 02:10:31;;;;;;;4.40;2.55;;;;;;;18.05;100.00;101644.22;5035168;28;20127;-76
2022/08/01 02:12:58;;;;;;;8.88;3.65;;;;;;;18.06;100.00;101643.19;5034701;28;20033;-75
2022/08/01 02:15:24;;;;;;;4.27;2.07;;;;;;;18.03;100.00;101637.31;5034524;28;20465;-76
2022/08/01 02:17:49;;;;;;;6.53;2.72;;;;;;;18.03;100.00;101642.75;5034279;28;20075;-75
2022/08/01 02:20:16;;;;;;;6.03;2.30;;;;;;;18.01;100.00;101645.69;5016395;28;20033;-75
2022/08/01 02:22:44;;;;;;;5.57;2.33;;;;;;;18.01;100.00;101640.25;5032705;28;20025;-75
2022/08/01 02:25:18;;;;;;;6.22;1.88;;;;;;;17.97;100.00;101642.53;5032347;28;20030;-75
2022/08/01 02:27:54;;;;;;;6.45;2.13;;;;;;;18.00;100.00;101644.00;5032764;28;20095;-75
2022/08/01 02:30:20;;;;;;;3.10;1.52;;;;;;;18.00;100.00;101644.00;5032629;28;20388;-75
2022/08/01 02:35:41;;;;;;;2.05;1.50;;;;;;;17.98;100.00;101646.09;4934238;23;20426;-74
2022/08/01 02:38:09;;;;;;;3.30;1.40;;;;;;;17.97;100.00;101644.44;5009900;28;20029;-74
2022/08/01 02:40:38;;;;;;;1.40;1.25;;;;;;;17.92;100.00;101652.41;5014574;28;20429;-73
2022/08/01 02:43:04;;;;;;;1.77;1.25;;;;;;;17.93;100.00;101648.63;4988653;28;20134;-74
2022/08/01 02:45:31;;;;;;;4.20;1.40;;;;;;;17.90;100.00;101649.03;4989460;28;20026;-74
2022/08/01 02:48:06;;;;;;;1.50;1.40;;;;;;;17.93;100.00;101645.91;4994758;28;20053;-75
2022/08/01 02:50:31;;;;;;;4.63;1.42;;;;;;;17.94;100.00;101658.47;5014388;28;20030;-74
2022/08/01 02:52:57;;;;;;;1.80;1.40;;;;;;;17.93;100.00;101649.47;4996482;28;20026;-75
2022/08/01 02:55:23;;;;;;;2.22;1.60;;;;;;;17.95;100.00;101657.41;4996349;28;20032;-75
2022/08/01 02:57:50;;;;;;;4.38;1.75;;;;;;;17.95;100.00;101651.97;4995617;28;20037;-74
2022/08/01 03:00:17;;;;;;;2.58;1.75;;;;;;;17.96;100.00;101654.50;4978374;28;20489;-76
2022/08/01 03:02:43;;;;;;;5.37;1.83;;;;;;;17.96;100.00;101649.06;4996352;28;20034;-75
2022/08/01 03:05:10;;;;;;;2.53;2.00;;;;;;;17.96;100.00;101653.66;4997987;28;20054;-75
2022/08/01 03:07:36;;;;;;;4.65;2.38;;;;;;;17.97;100.00;101649.88;5009672;28;20513;-76
2022/08/01 03:10:02;;;;;;;4.47;1.90;;;;;;;17.96;100.00;101654.50;4995934;28;20058;-75
2022/08/01 03:12:29;;;;;;;7.25;2.47;;;;;;;17.96;100.00;101656.38;5013731;28;20032;-75
2022/08/01 03:14:56;;;;;;;5.87;2.20;;;;;;;17.97;100.00;101655.34;4995990;28;20030;-75
2022/08/01 03:17:24;;;;;;;3.47;2.30;;;;;;;18.04;100.00;101648.00;5012626;28;20025;-75
2022/08/01 03:19:51;;;;;;;5.68;2.33;;;;;;;18.03;100.00;101650.91;5012664;28;20041;-75
2022/08/01 03:22:18;;;;;;;6.75;1.80;;;;;;;18.02;100.00;101650.09;4995113;28;20436;-76
2022/08/01 03:24:48;;;;;;;6.20;2.35;;;;;;;18.02;100.00;101657.44;4994901;28;20022;-75
2022/08/01 03:27:14;;;;;;;3.90;2.17;;;;;;;18.01;100.00;101651.16;4978537;28;20045;-75
2022/08/01 03:29:40;;;;;;;4.78;2.00;;;;;;;18.03;100.00;101657.19;4994533;28;20025;-76
2022/08/01 03:32:06;;;;;;;3.67;1.80;;;;;;;18.02;100.00;101652.81;5012090;28;20026;-75
2022/08/01 03:34:32;;;;;;;3.83;2.10;;;;;;;18.01;100.00;101656.59;4994380;28;20481;-74
2022/08/01 03:37:17;;;;;;;5.70;2.15;;;;;;;17.99;100.00;101648.63;5011655;28;20064;-73
2022/08/01 03:40:12;;;;;;;6.68;2.28;;;;;;;18.01;100.00;101661.19;5011929;28;20034;-73
2022/08/01 03:42:44;;;;;;;2.58;2.00;;;;;;;17.99;100.00;101653.25;4985215;28;20053;-74
2022/08/01 03:45:14;;;;;;;5.20;2.20;;;;;;;17.92;100.00;101638.78;4975311;28;20467;-75
2022/08/01 03:47:42;;;;;;;6.75;2.42;;;;;;;17.91;100.00;101650.75;5007365;28;20563;-75
2022/08/01 03:50:09;;;;;;;2.72;2.10;;;;;;;17.89;100.00;101650.09;5011702;28;20358;-75
2022/08/01 03:52:38;;;;;;;3.70;1.90;;;;;;;17.90;100.00;101649.03;4978213;28;20526;-74
2022/08/01 03:55:06;;;;;;;3.85;2.10;;;;;;;17.90;100.00;101640.88;4994277;28;20044;-74
2022/08/01 03:57:33;;;;;;;5.40;1.98;;;;;;;17.93;100.00;101652.19;4994515;28;20030;-74
2022/08/01 03:59:59;;;;;;;3.80;1.75;;;;;;;17.93;100.00;101649.47;5010776;28;20141;-75
2022/08/01 04:02:26;;;;;;;4.75;1.98;;;;;;;17.90;100.00;101647.16;4974963;28;20496;-75
2022/08/01 04:04:51;;;;;;;4.20;1.73;;;;;;;17.91;100.00;101650.75;4958488;28;20106;-75
2022/08/01 04:07:29;;;;;;;2.28;1.80;;;;;;;17.86;100.00;101647.81;4986094;28;20061;-74
2022/08/01 04:09:55;;;;;;;3.45;1.77;;;;;;;17.82;100.00;101650.09;5011575;28;20102;-75
2022/08/01 04:12:20;;;;;;;3.30;1.60;;;;;;;17.78;100.00;101657.81;5011641;28;20041;-75
2022/08/01 04:14:46;;;;;;;1.50;1.20;;;;;;;17.77;100.00;101649.84;4993995;28;20018;-75
2022/08/01 04:17:11;;;;;;;3.40;1.58;;;;;;;17.77;100.00;101656.16;5011527;28;20025;-75
2022/08/01 04:19:37;;;;;;;3.90;1.65;;;;;;;17.81;100.00;101666.66;4977607;28;20076;-75
2022/08/01 04:22:03;;;;;;;6.53;1.80;;;;;;;17.81;100.00;101659.31;5011643;28;20472;-75
2022/08/01 04:24:29;;;;;;;4.30;1.85;;;;;;;17.84;100.00;101663.50;4994422;28;20022;-74
2022/08/01 04:26:56;;;;;;;5.28;2.30;;;;;;;17.86;100.00;101666.88;4994595;28;20025;-74
2022/08/01 04:29:23;;;;;;;3.08;1.98;;;;;;;17.88;100.00;101657.44;4994159;28;20022;-74
2022/08/01 04:31:49;;;;;;;5.70;1.80;;;;;;;17.93;100.00;101662.22;4993347;28;20022;-74
2022/08/01 04:34:18;;;;;;;4.68;2.10;;;;;;;17.94;100.00;101656.59;4992904;28;20054;-74
2022/08/01 04:36:44;;;;;;;3.70;2.08;;;;;;;17.95;100.00;101660.97;5009836;28;20536;-74
2022/08/01 04:39:09;;;;;;;5.53;1.92;;;;;;;17.96;100.00;101661.84;4993665;28;20040;-74
2022/08/01 04:41:35;;;;;;;2.65;2.10;;;;;;;18.00;100.00;101668.53;4992774;28;20091;-74
2022/08/01 04:44:02;;;;;;;6.45;2.40;;;;;;;18.02;100.00;101663.72;4993527;28;20124;-74
2022/08/01 04:46:28;;;;;;;4.07;2.60;;;;;;;18.07;100.00;101671.25;5008844;28;20030;-76
2022/08/01 04:48:54;;;;;;;5.85;2.42;;;;;;;18.09;100.00;101678.16;5009283;28;20257;-75
2022/08/01 04:51:24;;;;;;;3.97;2.63;;;;;;;18.12;100.00;101677.75;4990920;28;20034;-75
2022/08/01 04:53:50;;;;;;;4.63;2.72;;;;;;;18.17;100.00;101677.94;5009573;28;20036;-74
2022/08/01 04:56:16;;;;;;;5.75;2.63;;;;;;;18.19;100.00;101681.31;5011749;28;20110;-75
2022/08/01 04:58:43;;;;;;;3.58;2.22;;;;;;;18.19;100.00;101686.75;5011587;28;20117;-74
2022/08/01 05:01:09;;;;;;;4.40;2.40;;;;;;;18.24;100.00;101687.97;4988027;28;20110;-74
2022/08/01 05:03:35;;;;;;;4.70;2.40;;;;;;;18.20;100.00;101691.13;5010430;28;20030;-74
2022/08/01 05:06:01;;;;;;;5.80;2.30;;;;;;;18.21;100.00;101690.06;5008401;28;20018;-74
2022/08/01 05:08:26;;;;;;;2.97;2.00;;;;;;;18.23;100.00;101689.03;4990855;28;20040;-74
2022/08/01 05:10:52;;;;;;;5.40;2.30;;;;;;;18.25;100.00;101685.06;5008001;28;20105;-75
2022/08/01 05:13:18;;;;;;;2.90;2.35;;;;;;;18.26;100.00;101685.88;5010510;28;20041;-74
2022/08/01 05:15:43;;;;;;;4.82;2.80;;;;;;;18.23;100.00;101678.16;5011982;28;20139;-75
2022/08/01 05:18:09;;;;;;;4.05;2.47;;;;;;;18.28;100.00;101684.63;5010673;28;20057;-74
2022/08/01 05:20:34;;;;;;;3.78;2.70;;;;;;;18.29;100.00;101685.47;5008689;28;20022;-75
2022/08/01 05:23:00;;;;;;;6.40;3.00;;;;;;;18.30;100.00;101678.94;5008438;28;20045;-75
2022/08/01 05:25:25;;;;;;;8.25;3.05;;;;;;;18.31;100.00;101683.38;5008601;28;20133;-75
2022/08/01 05:27:50;;;;;;;9.90;3.45;;;;;;;18.32;100.00;101685.84;4992251;28;20049;-74
2022/08/01 05:30:17;;;;;;;8.50;3.20;;;;;;;18.41;100.00;101681.03;4988171;28;20551;-74
2022/08/01 05:32:42;;;;;;;9.68;3.25;;;;;;;18.35;100.00;101688.19;5003498;28;20026;-75
2022/08/01 05:35:08;;;;;;;6.60;2.70;;;;;;;18.34;100.00;101693.84;5007678;28;20140;-76
2022/08/01 05:37:34;;;;;;;9.18;3.00;;;;;;;18.29;100.00;101697.19;5007776;28;20061;-75
2022/08/01 05:40:00;;;;;;;6.57;2.63;;;;;;;18.24;100.00;101691.53;5007404;28;20050;-75
2022/08/01 05:42:26;;;;;;;7.28;3.13;;;;;;;18.24;100.00;101701.59;5007595;28;20034;-74
2022/08/01 05:44:51;;;;;;;5.40;2.70;;;;;;;18.24;100.00;101704.34;5006733;28;20033;-76
2022/08/01 05:47:17;;;;;;;5.22;2.78;;;;;;;18.25;100.00;101706.03;5005995;28;20346;-74
2022/08/01 05:49:43;;;;;;;6.43;2.80;;;;;;;18.12;100.00;101710.44;4998533;28;20121;-74
2022/08/01 05:52:09;;;;;;;5.45;2.85;;;;;;;18.08;100.00;101716.50;5011654;28;20098;-75
2022/08/01 05:54:34;;;;;;;4.68;3.40;;;;;;;18.08;100.00;101711.06;5005724;28;20038;-75
2022/08/01 05:57:01;;;;;;;5.03;2.70;;;;;;;18.03;100.00;101719.84;5006499;28;20029;-75
2022/08/01 05:59:29;;;;;;;3.55;3.10;;;;;;;18.07;100.00;101723.00;4990063;28;20116;-76
2022/08/01 06:01:55;;;;;;;5.53;3.22;;;;;;;18.11;100.00;101727.81;5007416;28;20096;-74
2022/08/01 06:04:20;;;;;;;4.47;3.25;;;;;;;18.07;100.00;101718.41;5007576;28;20026;-76
2022/08/01 06:06:45;;;;;;;4.00;3.22;;;;;;;18.05;100.00;101731.38;5005943;28;20430;-75
2022/08/01 06:09:11;;;;;;;7.07;2.88;;;;;;;18.00;100.00;101736.63;4990008;28;20034;-75
2022/08/01 06:11:36;;;;;;;4.22;3.20;;;;;;;17.97;100.00;101737.03;5007335;28;20030;-74
2022/08/01 06:14:02;;;;;;;5.50;3.47;;;;;;;18.01;100.00;101735.59;5007031;28;20038;-75
2022/08/01 06:16:28;;;;;;;7.97;3.70;;;;;;;17.96;100.00;101729.94;5007740;28;20026;-75
2022/08/01 06:18:53;;;;;;;5.32;3.30;;;;;;;17.97;100.00;101732.41;5008148;28;20036;-75
2022/08/01 06:21:18;;;;;;;9.05;3.55;;;;;;;18.00;100.00;101739.34;5008649;28;20037;-74
2022/08/01 06:23:44;;;;;;;10.00;4.07;;;;;;;18.09;100.00;101739.97;5011338;28;20033;-76
2022/08/01 06:26:10;;;;;;;12.20;3.88;;;;;;;18.08;100.00;101739.13;4978100;28;20569;-75
2022/08/01 06:28:35;;;;;;;15.35;4.75;;;;;;;18.18;100.00;101745.00;5012201;28;20128;-75
2022/08/01 06:31:01;;;;;;;13.30;4.57;;;;;;;18.23;100.00;101741.66;4993849;28;20436;-75
2022/08/01 06:33:26;;;;;;;18.75;4.82;;;;;;;18.30;100.00;101744.34;5010694;28;20060;-76
2022/08/01 06:35:52;;;;;;;20.75;5.05;;;;;;;18.32;100.00;101747.72;5012118;28;20433;-74
2022/08/01 06:38:17;;;;;;;20.38;5.00;;;;;;;18.39;100.00;101745.81;4994896;28;20093;-75
2022/08/01 06:40:43;;;;;;;15.07;4.97;;;;;;;18.46;100.00;101746.66;4991533;28;20034;-76
2022/08/01 06:43:08;;;;;;;16.42;5.15;;;;;;;18.59;100.00;101740.34;5009898;28;20022;-75
2022/08/01 06:45:34;;;;;;;20.55;6.53;;;;;;;18.70;100.00;101742.41;5011123;28;20056;-74
2022/08/01 06:47:59;;;;;;;18.17;6.43;;;;;;;18.72;100.00;101744.91;5011939;28;20305;-75
2022/08/01 06:50:24;;;;;;;19.00;6.32;;;;;;;18.85;100.00;101750.34;4994127;28;20466;-75
2022/08/01 06:52:50;;;;;;;19.73;6.82;;;;;;;18.92;98.92;101753.91;4989910;28;20049;-76
2022/08/01 06:55:15;;;;;;;19.02;7.57;;;;;;;18.89;97.96;101750.78;4994282;28;20038;-75
2022/08/01 06:57:49;;;;;;;16.75;7.30;;;;;;;18.97;96.57;101758.72;4993017;28;20405;-75
2022/08/01 07:00:16;;;;;;;17.55;7.43;;;;;;;18.95;95.94;101761.66;4993506;28;20108;-75
2022/08/01 07:02:41;;;;;;;27.45;8.48;;;;;;;18.99;95.96;101768.34;5009634;28;20042;-75
2022/08/01 07:05:07;;;;;;;21.75;7.13;;;;;;;19.28;96.98;101768.88;5010658;28;20346;-75
2022/08/01 07:07:32;;;;;;;20.70;6.82;;;;;;;19.54;96.65;101759.72;5010609;28;20037;-75
2022/08/01 07:09:57;;;;;;;16.48;7.22;;;;;;;19.99;94.53;101754.16;5011077;28;20091;-75
2022/08/01 07:12:23;;;;;;;16.00;6.10;;;;;;;20.29;92.66;101772.63;5009030;28;20045;-75
2022/08/01 07:14:48;;;;;;;17.48;5.43;;;;;;;20.82;87.62;101774.84;5010469;28;20085;-75
2022/08/01 07:17:13;;;;;;;17.63;5.32;;;;;;;20.99;84.43;101766.88;5009725;28;20500;-76
2022/08/01 07:19:39;;;;;;;16.30;5.32;;;;;;;20.94;82.21;101772.22;5010195;28;20440;-76
2022/08/01 07:22:04;;;;;;;17.35;5.55;;;;;;;21.09;82.33;101771.81;5007947;28;20042;-75
2022/08/01 07:24:30;;;;;;;19.67;6.10;;;;;;;21.29;82.33;101782.50;5010185;28;20056;-76
2022/08/01 07:26:57;;;;;;;17.63;6.00;;;;;;;21.48;79.73;101775.94;5010254;28;20093;-76
2022/08/01 07:29:26;;;;;;;23.77;6.25;;;;;;;21.62;79.28;101780.19;5010382;28;20088;-75
2022/08/01 07:31:54;;;;;;;16.33;5.70;;;;;;;21.60;77.35;101790.53;5010663;28;20026;-76
2022/08/01 07:34:19;;;;;;;;;;;;;;;21.41;77.47;101788.94;5010659;28;20046;-75
2022/08/01 07:36:44;;;;;;;21.30;6.45;;;;;;;21.15;79.46;101787.34;4994688;28;19917;-74
2022/08/01 07:39:10;;;;;;;18.73;6.30;;;;;;;20.91;80.15;101792.66;5010718;28;20939;-75
2022/08/01 07:41:35;;;;;;;25.48;7.40;;;;;;;20.86;81.09;101797.97;5012040;28;20045;-75
2022/08/01 07:44:00;;;;;;;20.90;6.13;;;;;;;21.27;81.50;101791.81;4989965;28;20112;-76
2022/08/01 07:46:26;;;;;;;15.30;5.22;;;;;;;21.93;76.34;101789.19;4985198;28;20041;-75
2022/08/01 07:48:53;;;;;;;20.85;4.63;;;;;;;22.71;72.63;101799.09;5009557;28;20411;-75
2022/08/01 07:51:18;;;;;;;;;;;;;;;23.30;69.45;101801.75;5007265;28;20021;-75
2022/08/01 07:53:44;;;;;;;18.57;4.07;;;;;;;23.75;67.34;101809.25;5012543;28;19914;-75
2022/08/01 07:56:09;;;;;;;13.65;3.70;;;;;;;24.07;66.78;101806.78;5007794;28;20295;-75
2022/08/01 07:58:35;;;;;;;13.30;3.20;;;;;;;24.52;65.75;101807.81;5001066;28;20520;-75
2022/08/01 08:01:00;;;;;;;15.63;4.07;;;;;;;24.60;62.52;101810.13;5011822;28;20485;-74
2022/08/01 08:03:26;;;;;;;13.25;3.55;;;;;;;24.80;61.44;101815.09;5012040;28;20151;-74
2022/08/01 08:05:51;;;;;;;13.55;2.92;;;;;;;24.84;60.86;101807.19;5012037;28;20421;-74
2022/08/01 08:08:18;;;;;;;14.52;3.17;;;;;;;24.80;60.91;101811.50;4994204;28;20025;-74
2022/08/01 08:10:43;;;;;;;8.95;2.63;;;;;;;25.03;60.11;101822.28;5011915;28;20429;-74
2022/08/01 08:13:08;;;;;;;9.77;2.83;;;;;;;25.30;58.76;101825.16;5011528;28;20033;-75
2022/08/01 08:15:34;;;;;;;12.90;2.67;;;;;;;25.36;56.45;101815.88;4994136;28;20029;-74
2022/08/01 08:17:59;;;;;;;11.63;2.30;;;;;;;25.56;56.71;101812.50;5012195;28;20032;-74
2022/08/01 08:20:26;;;;;;;10.60;2.35;;;;;;;25.36;58.12;101815.03;5011458;28;20025;-74
2022/08/01 08:22:52;;;;;;;14.90;2.97;;;;;;;25.41;57.20;101823.38;5011748;28;20034;-74
2022/08/01 08:25:21;;;;;;;12.15;2.60;;;;;;;25.68;54.67;101817.03;5010963;28;20030;-74
2022/08/01 08:27:47;;;;;;;7.95;2.50;;;;;;;25.65;55.19;101825.84;5011506;28;20034;-74
2022/08/01 08:30:12;;;;;;;10.82;2.38;;;;;;;25.68;55.16;101823.38;5011382;28;20478;-75
2022/08/01 08:32:38;;;;;;;10.23;2.40;;;;;;;25.54;54.28;101828.47;5011446;28;20525;-74
2022/08/01 08:35:05;;;;;;;7.13;1.83;;;;;;;25.28;53.28;101830.09;5011588;28;20046;-74
2022/08/01 08:37:30;;;;;;;15.02;2.40;;;;;;;24.97;55.03;101823.31;5011559;28;20410;-73
2022/08/01 08:39:56;;;;;;;10.57;2.58;;;;;;;24.98;55.90;101828.56;4977377;28;20080;-74
2022/08/01 08:42:21;;;;;;;7.97;2.40;;;;;;;24.88;55.61;101835.84;4993960;28;20046;-74
2022/08/01 08:44:46;;;;;;;10.05;2.28;;;;;;;24.90;55.08;101836.44;5009771;28;20504;-74
2022/08/01 08:47:13;;;;;;;10.15;2.00;;;;;;;25.25;55.37;101843.53;4992923;28;20505;-74
2022/08/01 08:49:42;;;;;;;10.50;2.33;;;;;;;26.12;51.59;101833.47;5010166;28;20022;-74
2022/08/01 08:52:09;;;;;;;8.38;2.00;;;;;;;26.66;50.96;101836.16;5010642;28;20076;-75
2022/08/01 08:54:36;;;;;;;9.52;2.03;;;;;;;26.59;50.26;101839.13;4992899;28;20029;-75
2022/08/01 08:57:01;;;;;;;15.13;2.80;;;;;;;26.16;49.36;101837.38;4977662;28;20080;-75
2022/08/01 08:59:28;;;;;;;9.88;2.28;;;;;;;25.54;52.87;101838.66;4992887;28;20013;-71
2022/08/01 09:01:53;;;;;;;19.42;3.03;;;;;;;25.31;54.02;101840.59;5010294;28;20030;-75
2022/08/01 09:04:22;;;;;;;10.63;2.03;;;;;;;25.42;52.57;101846.25;5009938;28;20044;-74
2022/08/01 09:06:47;;;;;;;12.32;2.55;;;;;;;25.21;54.38;101850.66;5009856;28;20058;-74
2022/08/01 09:09:13;;;;;;;19.17;4.00;;;;;;;25.10;55.25;101846.91;4992064;28;20134;-74
2022/08/01 09:11:38;;;;;;;10.27;2.47;;;;;;;25.80;52.72;101851.66;5010218;28;20030;-75
2022/08/01 09:14:22;;;;;;;13.23;2.40;;;;;;;26.37;50.64;101843.91;5009837;28;20129;-74
2022/08/01 09:16:47;;;;;;;11.60;2.70;;;;;;;27.69;46.10;101852.13;5010628;28;20033;-75
2022/08/01 09:19:17;;;;;;;13.32;2.53;;;;;;;28.29;43.94;101855.28;4992955;28;20398;-75
2022/08/01 09:21:59;;;;;;;15.43;2.60;;;;;;;28.30;44.27;101853.34;5009960;28;20050;-74
2022/08/01 09:24:29;;;;;;;15.57;2.60;;;;;;;27.85;45.32;101854.97;5009508;28;20049;-75
2022/08/01 09:26:54;;;;;;;11.95;2.50;;;;;;;27.04;47.08;101847.97;5009458;28;20247;-73
2022/08/01 09:29:23;;;;;;;14.50;2.80;;;;;;;25.98;48.96;101855.16;5009436;28;20022;-75
2022/08/01 09:31:49;;;;;;;25.45;3.65;;;;;;;25.58;50.58;101857.19;4991898;28;20037;-75
2022/08/01 09:34:16;;;;;;;10.63;2.47;;;;;;;25.17;52.13;101859.44;5009483;28;20144;-75
2022/08/01 09:36:55;;;;;;;17.80;3.13;;;;;;;24.95;52.69;101858.53;5009752;28;20032;-75
2022/08/01 09:39:24;;;;;;;20.80;3.05;;;;;;;24.61;53.75;101855.84;5010324;28;20069;-75
2022/08/01 09:41:50;;;;;;;26.63;3.95;;;;;;;24.29;55.32;101861.91;5009680;28;20022;-74
2022/08/01 09:44:17;;;;;;;19.15;3.63;;;;;;;24.79;54.94;101867.69;5009449;28;20034;-75
2022/08/01 09:46:54;;;;;;;21.30;2.90;;;;;;;25.11;53.26;101863.16;5009225;28;20258;-75
2022/08/01 09:49:32;;;;;;;15.15;3.13;;;;;;;25.94;50.72;101860.38;5010345;28;20542;-73
2022/08/01 09:51:59;;;;;;;18.25;3.40;;;;;;;26.24;51.14;101870.03;5010384;28;20061;-73
2022/08/01 09:54:29;;;;;;;19.65;3.25;;;;;;;26.56;50.91;101872.78;5010029;28;20386;-73
2022/08/01 09:57:16;;;;;;;18.30;3.00;;;;;;;27.20;47.03;101871.88;5010673;28;20036;-75
2022/08/01 09:59:46;;;;;;;15.05;3.13;;;;;;;26.91;47.27;101863.94;4995645;28;20033;-73
2022/08/01 10:02:15;;;;;;;20.38;3.63;;;;;;;26.45;49.48;101854.47;4995730;28;20026;-73
2022/08/01 10:04:51;;;;;;;18.50;3.33;;;;;;;26.17;49.22;101869.41;5013658;28;20038;-74
2022/08/01 10:07:17;;;;;;;26.20;3.67;;;;;;;25.91;50.07;101863.66;5013285;28;20482;-73
2022/08/01 10:09:43;;;;;;;13.95;3.10;;;;;;;26.18;50.07;101868.31;5013408;28;20461;-73
2022/08/01 10:12:10;;;;;;;29.23;3.80;;;;;;;26.22;49.35;101867.50;5013496;28;20460;-73
2022/08/01 10:14:37;;;;;;;15.97;3.27;;;;;;;26.23;50.07;101860.09;5013322;28;20026;-74
2022/08/01 10:17:03;;;;;;;32.90;5.13;;;;;;;26.44;50.02;101863.84;5012818;28;20300;-73
2022/08/01 10:19:29;;;;;;;19.80;3.67;;;;;;;26.39;50.66;101856.34;4994867;28;20030;-74
2022/08/01 10:21:56;;;;;;;12.75;2.63;;;;;;;26.91;46.98;101857.59;5013187;28;20474;-75
2022/08/01 10:24:22;;;;;;;18.27;3.23;;;;;;;26.86;46.80;101866.66;5013601;28;20112;-74
2022/08/01 10:26:49;;;;;;;18.42;3.42;;;;;;;26.39;47.91;101864.63;5012822;28;20718;-74
2022/08/01 10:29:20;;;;;;;14.48;2.58;;;;;;;26.46;46.57;101868.03;4995774;28;20466;-74
2022/08/01 10:31:46;;;;;;;19.45;3.60;;;;;;;26.25;48.97;101871.66;5012975;28;20033;-73
2022/08/01 10:34:15;;;;;;;21.90;4.20;;;;;;;26.03;49.37;101864.31;5012779;28;20053;-74
2022/08/01 10:36:43;;;;;;;31.77;3.90;;;;;;;25.63;49.74;101875.72;5012472;28;20042;-74
2022/08/01 10:39:10;;;;;;;23.55;3.78;;;;;;;25.69;50.32;101876.59;4978725;28;20501;-75
2022/08/01 10:41:35;;;;;;;;;;;;;;;25.74;50.38;101877.47;5013645;28;20030;-75
2022/08/01 10:44:01;;;;;;;23.05;3.53;;;;;;;25.61;51.53;101877.88;4995202;28;20423;-74
2022/08/01 10:46:27;;;;;;;22.40;3.33;;;;;;;25.97;50.20;101870.88;5012781;28;20052;-75
2022/08/01 10:49:06;;;;;;;17.58;3.50;;;;;;;25.66;49.22;101866.09;4978881;28;20117;-75
2022/08/01 10:51:37;;;;;;;19.17;2.95;;;;;;;25.49;50.79;101877.19;5012599;28;20469;-75
2022/08/01 10:54:06;;;;;;;18.08;3.42;;;;;;;25.94;50.92;101879.69;4995027;28;20479;-74
2022/08/01 10:56:47;;;;;;;16.60;2.90;;;;;;;26.80;47.29;101884.28;5012318;28;20040;-74
2022/08/01 10:59:24;;;;;;;24.02;3.47;;;;;;;26.85;46.65;101877.97;5012409;28;20033;-75
2022/08/01 11:02:02;;;;;;;23.75;3.83;;;;;;;26.71;47.28;101883.97;4994218;28;20034;-74
2022/08/01 11:04:42;;;;;;;24.33;3.85;;;;;;;26.78;47.61;101889.28;5012248;28;20087;-74
2022/08/01 11:07:19;;;;;;;13.45;2.80;;;;;;;26.84;46.87;101885.44;4994745;28;20312;-75
2022/08/01 11:09:47;;;;;;;16.55;2.83;;;;;;;27.34;44.44;101884.09;4994644;28;20140;-74
2022/08/01 11:12:15;;;;;;;17.42;3.58;;;;;;;27.71;43.67;101888.66;4994354;28;20026;-74
2022/08/01 11:14:59;;;;;;;18.75;3.40;;;;;;;28.29;43.44;101890.44;5011813;28;20034;-74
2022/08/01 11:17:36;;;;;;;21.45;3.35;;;;;;;28.49;42.74;101895.16;5012026;28;20129;-74
2022/08/01 11:20:09;;;;;;;22.30;2.90;;;;;;;28.21;42.00;101892.66;5011932;28;20029;-75
2022/08/01 11:22:59;;;;;;;14.50;2.85;;;;;;;28.17;40.84;101888.78;5011841;28;20061;-74